createdAt,value
2018-11-28T00:01:00.893Z,23.10
2018-11-28T00:03:29.021Z,23.00
2018-11-28T00:05:57.127Z,23.10
2018-11-28T00:08:25.212Z,23.10
2018-11-28T00:10:53.308Z,23.10
2018-11-28T00:13:21.415Z,23.00
2018-11-28T00:15:49.536Z,23.10
2018-11-28T00:18:17.636Z,23.00
2018-11-28T00:20:45.756Z,23.00
2018-11-28T00:23:13.850Z,23.00
2018-11-28T00:25:41.957Z,23.00
2018-11-28T00:28:10.041Z,23.00
2018-11-28T00:30:38.152Z,23.00
2018-11-28T00:33:06.238Z,23.00
2018-11-28T00:35:34.328Z,23.00
2018-11-28T00:38:02.431Z,23.00
2018-11-28T00:40:30.522Z,23.00
2018-11-28T00:42:58.618Z,22.90
2018-11-28T00:45:26.750Z,23.00
2018-11-28T00:47:54.844Z,23.00
2018-11-28T00:50:24.285Z,23.00
2018-11-28T00:52:52.394Z,22.90
2018-11-28T00:55:20.509Z,23.00
2018-11-28T00:57:48.630Z,22.90
2018-11-28T01:00:18.673Z,22.90
2018-11-28T01:02:47.124Z,22.90
2018-11-28T01:05:15.446Z,22.90
2018-11-28T01:07:44.276Z,22.90
2018-11-28T01:10:14.125Z,22.90
2018-11-28T01:12:42.222Z,22.90
2018-11-28T01:15:12.454Z,22.90
2018-11-28T01:17:40.589Z,22.90
2018-11-28T01:20:10.061Z,22.90
2018-11-28T01:22:38.161Z,22.90
2018-11-28T01:25:08.240Z,22.90
2018-11-28T01:27:36.357Z,22.90
2018-11-28T01:30:07.913Z,22.90
2018-11-28T01:32:36.178Z,22.90
2018-11-28T01:35:04.844Z,22.80
2018-11-28T01:37:32.945Z,22.90
2018-11-28T01:40:01.063Z,22.80
2018-11-28T01:42:29.191Z,22.80
2018-11-28T01:44:57.307Z,22.80
2018-11-28T01:47:25.425Z,22.80
2018-11-28T01:49:53.520Z,22.80
2018-11-28T01:52:21.623Z,22.80
2018-11-28T01:54:49.710Z,22.80
2018-11-28T01:57:17.834Z,22.80
2018-11-28T01:59:45.963Z,22.80
2018-11-28T02:02:14.053Z,22.80
2018-11-28T02:04:42.162Z,22.80
2018-11-28T02:07:10.339Z,22.80
2018-11-28T02:09:38.462Z,22.80
2018-11-28T02:12:06.597Z,22.80
2018-11-28T02:14:34.712Z,22.80
2018-11-28T02:17:02.806Z,22.80
2018-11-28T02:19:30.921Z,22.80
2018-11-28T02:21:59.021Z,22.80
2018-11-28T02:24:27.108Z,22.80
2018-11-28T02:26:55.205Z,22.80
2018-11-28T02:29:24.385Z,22.80
2018-11-28T02:31:51.398Z,22.80
2018-11-28T02:34:19.529Z,22.80
2018-11-28T02:36:47.602Z,22.80
2018-11-28T02:39:15.709Z,22.80
2018-11-28T02:41:43.806Z,22.80
2018-11-28T02:44:11.913Z,22.80
2018-11-28T02:46:40.030Z,22.80
2018-11-28T02:49:08.151Z,22.80
2018-11-28T02:51:36.267Z,22.80
2018-11-28T02:54:04.769Z,22.70
2018-11-28T02:56:32.858Z,22.70
2018-11-28T02:59:01.000Z,22.80
2018-11-28T03:01:29.086Z,22.70
2018-11-28T03:03:57.217Z,22.80
2018-11-28T03:06:25.359Z,22.70
2018-11-28T03:08:53.466Z,22.70
2018-11-28T03:11:21.558Z,22.70
2018-11-28T03:13:49.699Z,22.80
2018-11-28T03:16:19.162Z,22.70
2018-11-28T03:18:47.632Z,22.80
2018-11-28T03:21:15.882Z,22.70
2018-11-28T03:23:44.053Z,22.70
2018-11-28T03:26:12.154Z,22.70
2018-11-28T03:28:40.241Z,22.70
2018-11-28T03:31:08.371Z,22.70
2018-11-28T03:33:36.482Z,22.70
2018-11-28T03:36:04.906Z,22.70
2018-11-28T03:38:33.055Z,22.70
2018-11-28T03:41:01.205Z,22.70
2018-11-28T03:43:29.316Z,22.70
2018-11-28T03:45:57.429Z,22.70
2018-11-28T03:48:25.537Z,22.70
2018-11-28T03:50:53.637Z,22.70
2018-11-28T03:53:21.800Z,22.70
2018-11-28T03:55:49.894Z,22.70
2018-11-28T03:58:18.028Z,22.70
2018-11-28T04:00:46.146Z,22.60
2018-11-28T04:03:14.217Z,22.70
2018-11-28T04:05:42.487Z,22.70
2018-11-28T04:08:10.565Z,22.70
2018-11-28T04:10:38.658Z,22.60
2018-11-28T04:13:06.784Z,22.60
2018-11-28T04:15:34.880Z,22.60
2018-11-28T04:18:03.206Z,22.60
2018-11-28T04:20:31.288Z,22.60
2018-11-28T04:22:59.373Z,22.60
2018-11-28T04:25:27.468Z,22.60
2018-11-28T04:27:55.594Z,22.60
2018-11-28T04:30:24.517Z,22.60
2018-11-28T04:32:53.856Z,22.60
2018-11-28T04:35:21.952Z,22.60
2018-11-28T04:37:50.042Z,22.60
2018-11-28T04:40:19.083Z,22.60
2018-11-28T04:42:47.725Z,22.60
2018-11-28T04:45:16.865Z,22.60
2018-11-28T04:47:44.955Z,22.60
2018-11-28T04:50:13.259Z,22.60
2018-11-28T04:52:42.273Z,22.60
2018-11-28T04:55:11.609Z,22.60
2018-11-28T04:57:39.736Z,22.60
2018-11-28T05:00:10.953Z,22.60
2018-11-28T05:02:39.103Z,22.60
2018-11-28T05:05:07.991Z,22.60
2018-11-28T05:07:36.121Z,22.60
2018-11-28T05:10:06.414Z,22.60
2018-11-28T05:12:34.528Z,22.60
2018-11-28T05:15:02.643Z,22.60
2018-11-28T05:17:30.777Z,22.60
2018-11-28T05:19:58.949Z,22.60
2018-11-28T05:22:27.277Z,22.50
2018-11-28T05:24:55.483Z,22.10
2018-11-28T05:27:23.566Z,21.80
2018-11-28T05:29:51.724Z,21.60
2018-11-28T05:32:19.817Z,21.50
2018-11-28T05:34:47.957Z,21.60
2018-11-28T05:37:16.040Z,21.80
2018-11-28T05:39:44.161Z,21.90
2018-11-28T05:42:12.268Z,22.10
2018-11-28T05:44:40.350Z,22.30
2018-11-28T05:47:08.462Z,22.40
2018-11-28T05:49:36.562Z,22.50
2018-11-28T05:52:04.693Z,22.70
2018-11-28T05:54:32.781Z,22.80
2018-11-28T05:57:00.853Z,22.80
2018-11-28T05:59:28.947Z,22.90
2018-11-28T06:01:57.078Z,23.00
2018-11-28T06:04:25.162Z,23.00
2018-11-28T06:06:53.261Z,23.10
2018-11-28T06:09:21.341Z,23.10
2018-11-28T06:11:49.478Z,23.10
2018-11-28T06:14:17.624Z,23.20
2018-11-28T06:16:45.709Z,23.20
2018-11-28T06:19:13.820Z,23.20
2018-11-28T06:21:41.935Z,23.20
2018-11-28T06:24:10.046Z,23.20
2018-11-28T06:26:38.121Z,23.30
2018-11-28T06:29:06.764Z,23.30
2018-11-28T06:31:34.860Z,23.20
2018-11-28T06:34:03.126Z,23.20
2018-11-28T06:36:31.219Z,23.20
2018-11-28T06:38:59.308Z,23.20
2018-11-28T06:41:27.417Z,23.20
2018-11-28T06:43:55.532Z,23.10
2018-11-28T06:46:23.678Z,23.10
2018-11-28T06:48:51.768Z,23.10
2018-11-28T06:51:19.854Z,23.10
2018-11-28T06:53:47.938Z,23.10
2018-11-28T06:56:16.046Z,23.10
2018-11-28T06:58:44.154Z,23.10
2018-11-28T07:01:12.294Z,23.10
2018-11-28T07:03:40.556Z,23.10
2018-11-28T07:06:08.662Z,23.00
2018-11-28T07:08:36.769Z,23.10
2018-11-28T07:11:04.899Z,23.00
2018-11-28T07:13:32.964Z,23.00
2018-11-28T07:16:01.074Z,23.00
2018-11-28T07:18:40.629Z,23.00
2018-11-28T07:21:08.875Z,23.00
2018-11-28T07:23:36.986Z,23.00
2018-11-28T07:26:05.086Z,23.00
2018-11-28T07:28:33.201Z,23.00
2018-11-28T07:31:01.301Z,23.00
2018-11-28T07:33:29.453Z,23.00
2018-11-28T07:35:57.538Z,23.00
2018-11-28T07:38:25.613Z,23.00
2018-11-28T07:40:53.706Z,23.00
2018-11-28T07:43:21.800Z,23.00
2018-11-28T07:45:51.256Z,23.00
2018-11-28T07:48:19.407Z,23.00
2018-11-28T07:50:47.628Z,23.00
2018-11-28T07:53:15.673Z,23.00
2018-11-28T07:55:43.761Z,23.00
2018-11-28T07:58:11.876Z,23.00
2018-11-28T08:00:40.008Z,23.00
2018-11-28T08:03:09.001Z,23.00
2018-11-28T08:05:37.989Z,23.00
2018-11-28T08:08:08.060Z,23.10
2018-11-28T08:10:36.183Z,23.10
2018-11-28T08:13:05.072Z,23.10
2018-11-28T08:15:33.245Z,23.10
2018-11-28T08:18:01.541Z,23.10
2018-11-28T08:20:29.645Z,23.10
2018-11-28T08:22:57.743Z,23.10
2018-11-28T08:25:27.891Z,23.10
2018-11-28T08:27:54.238Z,23.10
2018-11-28T08:30:23.437Z,23.10
2018-11-28T08:32:51.917Z,23.10
2018-11-28T08:35:20.127Z,23.10
2018-11-28T08:37:48.275Z,23.10
2018-11-28T08:40:22.388Z,23.10
2018-11-28T08:42:50.494Z,23.10
2018-11-28T08:45:19.659Z,23.10
2018-11-28T08:47:50.358Z,23.10
2018-11-28T08:50:26.273Z,23.10
2018-11-28T08:52:54.400Z,23.10
2018-11-28T08:55:22.505Z,23.10
2018-11-28T08:57:50.966Z,23.10
2018-11-28T09:00:20.067Z,23.10
2018-11-28T09:02:50.257Z,23.20
2018-11-28T09:05:18.344Z,23.20
2018-11-28T09:07:46.467Z,23.20
2018-11-28T09:10:15.568Z,23.20
2018-11-28T09:12:44.044Z,23.20
2018-11-28T09:15:13.529Z,23.20
2018-11-28T09:17:41.604Z,23.20
2018-11-28T09:20:12.705Z,23.20
2018-11-28T09:22:40.814Z,23.20
2018-11-28T09:25:12.130Z,23.20
2018-11-28T09:27:40.278Z,23.20
2018-11-28T09:30:14.203Z,23.20
2018-11-28T09:32:42.289Z,23.20
2018-11-28T09:35:11.079Z,23.20
2018-11-28T09:37:39.165Z,23.20
2018-11-28T09:40:25.926Z,23.20
2018-11-28T09:42:55.281Z,23.20
2018-11-28T09:45:23.390Z,23.20
2018-11-28T09:47:51.494Z,23.20
2018-11-28T09:50:20.617Z,23.20
2018-11-28T09:52:48.787Z,23.20
2018-11-28T09:55:18.851Z,23.20
2018-11-28T09:57:47.067Z,23.20
2018-11-28T10:00:16.675Z,23.20
2018-11-28T10:02:44.800Z,23.20
2018-11-28T10:05:17.323Z,23.20
2018-11-28T10:07:45.406Z,23.30
2018-11-28T10:10:14.015Z,23.30
2018-11-28T10:12:42.234Z,23.30
2018-11-28T10:15:17.605Z,23.30
2018-11-28T10:17:45.749Z,23.30
2018-11-28T10:20:14.571Z,23.30
2018-11-28T10:22:42.862Z,23.30
2018-11-28T10:25:12.981Z,23.30
2018-11-28T10:27:41.249Z,23.30
2018-11-28T10:30:17.005Z,23.30
2018-11-28T10:32:45.140Z,23.30
2018-11-28T10:35:13.217Z,23.30
2018-11-28T10:37:41.325Z,23.30
2018-11-28T10:40:17.025Z,23.20
2018-11-28T10:42:45.657Z,23.20
2018-11-28T10:45:15.249Z,23.20
2018-11-28T10:47:43.359Z,23.20
2018-11-28T10:50:12.631Z,23.20
2018-11-28T10:52:40.941Z,23.20
2018-11-28T10:55:10.414Z,23.20
2018-11-28T10:57:38.517Z,23.20
2018-11-28T11:00:18.627Z,23.30
2018-11-28T11:02:52.086Z,23.30
2018-11-28T11:05:25.617Z,23.30
2018-11-28T11:07:59.289Z,23.30
2018-11-28T11:10:32.805Z,23.30
2018-11-28T11:13:06.435Z,23.30
2018-11-28T11:15:34.684Z,23.30
2018-11-28T11:18:02.791Z,23.30
2018-11-28T11:20:33.122Z,23.30
2018-11-28T11:23:01.387Z,23.30
2018-11-28T11:25:29.485Z,23.30
2018-11-28T11:27:57.556Z,23.30
2018-11-28T11:30:25.653Z,23.30
2018-11-28T11:32:53.827Z,23.30
2018-11-28T11:35:21.917Z,23.30
2018-11-28T11:37:50.046Z,23.30
2018-11-28T11:40:18.140Z,23.30
2018-11-28T11:42:46.235Z,23.30
2018-11-28T11:45:15.149Z,23.30
2018-11-28T11:47:43.455Z,23.30
2018-11-28T11:50:16.579Z,23.30
2018-11-28T11:52:44.861Z,23.30
2018-11-28T11:55:15.241Z,23.30
2018-11-28T11:57:43.317Z,23.30
2018-11-28T12:00:14.793Z,23.30
2018-11-28T12:02:45.090Z,23.30
2018-11-28T12:05:13.237Z,23.30
2018-11-28T12:07:41.347Z,23.30
2018-11-28T12:10:12.773Z,23.30
2018-11-28T12:12:40.882Z,23.30
2018-11-28T12:15:11.259Z,23.30
2018-11-28T12:17:39.416Z,23.30
2018-11-28T12:20:13.833Z,23.30
2018-11-28T12:22:43.169Z,23.30
2018-11-28T12:25:11.284Z,23.30
2018-11-28T12:27:39.419Z,23.30
2018-11-28T12:30:10.633Z,23.30
2018-11-28T12:32:38.733Z,23.30
2018-11-28T12:35:08.908Z,23.30
2018-11-28T12:37:37.043Z,23.30
2018-11-28T12:40:08.650Z,23.30
2018-11-28T12:42:36.900Z,23.30
2018-11-28T12:45:09.361Z,23.30
2018-11-28T12:47:37.750Z,23.30
2018-11-28T12:50:09.602Z,23.30
2018-11-28T12:52:37.693Z,23.40
2018-11-28T12:55:06.589Z,23.40
2018-11-28T12:57:34.686Z,23.40
2018-11-28T13:00:02.809Z,23.40
2018-11-28T13:02:30.941Z,23.40
2018-11-28T13:04:59.909Z,23.40
2018-11-28T13:07:27.760Z,23.40
2018-11-28T13:09:55.850Z,23.40
2018-11-28T13:12:23.976Z,23.40
2018-11-28T13:14:52.074Z,23.40
2018-11-28T13:17:20.218Z,23.40
2018-11-28T13:19:48.504Z,23.30
2018-11-28T13:22:16.645Z,23.30
2018-11-28T13:24:44.773Z,23.30
2018-11-28T13:27:12.937Z,23.30
2018-11-28T13:29:41.024Z,23.30
2018-11-28T13:32:09.125Z,23.30
2018-11-28T13:34:37.242Z,23.30
2018-11-28T13:37:05.501Z,23.40
2018-11-28T13:39:33.577Z,23.40
2018-11-28T13:42:01.669Z,23.30
2018-11-28T13:44:29.730Z,23.30
2018-11-28T13:46:57.837Z,23.30
2018-11-28T13:49:25.924Z,23.30
2018-11-28T13:51:54.016Z,23.30
2018-11-28T13:54:22.113Z,23.30
2018-11-28T13:56:59.192Z,23.30
2018-11-28T13:59:18.353Z,23.30
2018-11-28T14:01:46.445Z,23.30
2018-11-28T14:04:14.553Z,23.30
2018-11-28T14:06:42.650Z,23.30
2018-11-28T14:09:10.737Z,23.30
2018-11-28T14:11:38.856Z,23.30
2018-11-28T14:14:07.113Z,23.30
2018-11-28T14:16:35.237Z,23.30
2018-11-28T14:19:03.318Z,23.30
2018-11-28T14:21:31.411Z,23.30
2018-11-28T14:23:59.540Z,23.30
2018-11-28T14:26:27.622Z,23.30
2018-11-28T14:28:55.737Z,23.30
2018-11-28T14:31:23.844Z,23.30
2018-11-28T14:33:52.282Z,23.30
2018-11-28T14:36:20.452Z,23.30
2018-11-28T14:38:48.565Z,23.30
2018-11-28T14:41:16.697Z,23.30
2018-11-28T14:43:44.837Z,23.20
2018-11-28T14:46:12.945Z,23.20
2018-11-28T14:48:41.025Z,23.30
2018-11-28T14:51:09.161Z,23.20
2018-11-28T14:53:37.275Z,23.20
2018-11-28T14:56:05.545Z,23.20
2018-11-28T14:58:33.642Z,23.20
2018-11-28T15:01:01.765Z,23.20
2018-11-28T15:03:29.865Z,23.20
2018-11-28T15:06:36.361Z,23.20
2018-11-28T15:09:13.385Z,23.20
2018-11-28T15:11:41.803Z,23.20
2018-11-28T15:14:10.230Z,23.20
2018-11-28T15:16:38.313Z,23.20
2018-11-28T15:19:06.416Z,23.10
2018-11-28T15:21:34.577Z,23.20
2018-11-28T15:24:02.676Z,23.20
2018-11-28T15:26:30.747Z,23.20
2018-11-28T15:28:58.833Z,23.10
2018-11-28T15:31:27.156Z,23.10
2018-11-28T15:33:55.253Z,23.10
2018-11-28T15:36:23.357Z,23.10
2018-11-28T15:38:51.429Z,23.20
2018-11-28T15:41:19.562Z,23.10
2018-11-28T15:43:47.687Z,23.10
2018-11-28T15:46:15.786Z,23.10
2018-11-28T15:48:43.899Z,23.10
2018-11-28T15:51:12.246Z,23.10
2018-11-28T15:53:40.403Z,23.10
2018-11-28T15:56:08.509Z,23.10
2018-11-28T15:58:37.595Z,23.10
2018-11-28T16:01:06.299Z,23.10
2018-11-28T16:03:34.381Z,23.10
2018-11-28T16:06:02.488Z,23.20
2018-11-28T16:08:30.585Z,23.10
2018-11-28T16:10:58.697Z,23.10
2018-11-28T16:13:26.943Z,23.10
2018-11-28T16:15:56.515Z,23.10
2018-11-28T16:18:24.612Z,23.20
2018-11-28T16:20:52.725Z,23.10
2018-11-28T16:23:20.872Z,23.10
2018-11-28T16:25:48.957Z,23.10
2018-11-28T16:28:17.052Z,23.10
2018-11-28T16:30:45.139Z,23.10
2018-11-28T16:33:13.226Z,23.10
2018-11-28T16:35:41.307Z,23.10
2018-11-28T16:38:09.113Z,23.10
2018-11-28T16:40:37.238Z,23.10
2018-11-28T16:43:05.774Z,23.10
2018-11-28T16:45:34.073Z,23.10
2018-11-28T16:48:02.236Z,23.10
2018-11-28T16:50:30.348Z,23.10
2018-11-28T16:52:58.413Z,23.10
2018-11-28T16:55:26.477Z,23.10
2018-11-28T16:57:55.037Z,23.10
2018-11-28T17:00:26.279Z,23.10
2018-11-28T17:02:55.166Z,23.10
2018-11-28T17:05:23.550Z,23.10
2018-11-28T17:07:52.229Z,23.10
2018-11-28T17:10:24.598Z,23.10
2018-11-28T17:12:53.261Z,23.10
2018-11-28T17:15:21.343Z,23.10
2018-11-28T17:17:49.462Z,23.10
2018-11-28T17:20:19.556Z,23.10
2018-11-28T17:22:48.077Z,23.10
2018-11-28T17:25:21.232Z,23.10
2018-11-28T17:27:49.322Z,23.10
2018-11-28T17:30:19.849Z,23.10
2018-11-28T17:32:47.962Z,23.10
2018-11-28T17:35:16.025Z,23.10
2018-11-28T17:37:44.105Z,23.10
2018-11-28T17:40:15.393Z,23.00
2018-11-28T17:42:44.624Z,23.00
2018-11-28T17:45:14.818Z,23.00
2018-11-28T17:47:44.444Z,23.00
2018-11-28T17:50:15.538Z,23.00
2018-11-28T17:52:45.543Z,23.00
2018-11-28T17:55:15.213Z,23.00
2018-11-28T17:57:43.319Z,23.00
2018-11-28T18:00:13.418Z,23.00
2018-11-28T18:02:41.634Z,23.00
2018-11-28T18:05:10.659Z,23.00
2018-11-28T18:07:38.901Z,23.00
2018-11-28T18:10:10.589Z,23.00
2018-11-28T18:12:43.225Z,23.00
2018-11-28T18:15:11.298Z,23.00
2018-11-28T18:17:39.420Z,23.00
2018-11-28T18:20:07.628Z,23.00
2018-11-28T18:22:35.752Z,23.00
2018-11-28T18:25:03.821Z,23.00
2018-11-28T18:27:31.916Z,23.00
2018-11-28T18:29:59.979Z,23.00
2018-11-28T18:32:28.058Z,23.00
2018-11-28T18:34:56.121Z,23.00
2018-11-28T18:37:24.474Z,23.00
2018-11-28T18:39:52.353Z,23.00
2018-11-28T18:42:20.449Z,23.00
2018-11-28T18:44:48.562Z,23.10
2018-11-28T18:47:16.640Z,23.10
2018-11-28T18:49:44.733Z,23.00
2018-11-28T18:52:12.806Z,23.10
2018-11-28T18:54:40.884Z,23.10
2018-11-28T18:57:08.949Z,23.10
2018-11-28T18:59:37.034Z,23.10
2018-11-28T19:02:05.736Z,23.10
2018-11-28T19:04:33.841Z,23.20
2018-11-28T19:07:01.944Z,23.10
2018-11-28T19:09:35.393Z,23.20
2018-11-28T19:12:03.482Z,23.20
2018-11-28T19:14:31.577Z,23.20
2018-11-28T19:16:59.726Z,23.20
2018-11-28T19:19:28.033Z,23.20
2018-11-28T19:21:56.158Z,23.20
2018-11-28T19:24:24.247Z,23.20
2018-11-28T19:26:52.346Z,23.20
2018-11-28T19:29:20.439Z,23.20
2018-11-28T19:31:48.547Z,23.20
2018-11-28T19:34:18.316Z,23.20
2018-11-28T19:36:44.758Z,23.20
2018-11-28T19:39:12.843Z,23.20
2018-11-28T19:41:40.942Z,23.30
2018-11-28T19:44:09.044Z,23.30
2018-11-28T19:46:37.166Z,23.30
2018-11-28T19:49:05.472Z,23.30
2018-11-28T19:51:33.570Z,23.30
2018-11-28T19:54:01.737Z,23.30
2018-11-28T19:56:29.828Z,23.30
2018-11-28T19:58:57.941Z,23.30
2018-11-28T20:01:26.064Z,23.30
2018-11-28T20:06:22.270Z,23.30
2018-11-28T20:08:50.372Z,23.30
2018-11-28T20:11:18.464Z,23.30
2018-11-28T20:13:46.566Z,23.20
2018-11-28T20:18:42.986Z,23.20
2018-11-28T20:21:11.075Z,23.20
2018-11-28T20:23:39.194Z,23.20
2018-11-28T20:26:07.289Z,23.30
2018-11-28T20:28:35.352Z,23.30
2018-11-28T20:31:03.646Z,23.20
2018-11-28T20:33:31.721Z,23.20
2018-11-28T20:35:59.837Z,23.20
2018-11-28T20:38:29.794Z,23.20
2018-11-28T20:40:57.889Z,23.20
2018-11-28T20:43:25.985Z,23.20
2018-11-28T20:45:54.107Z,23.20
2018-11-28T20:48:22.177Z,23.30
2018-11-28T20:50:50.980Z,23.20
2018-11-28T20:53:20.060Z,23.30
2018-11-28T20:55:48.134Z,23.30
2018-11-28T20:58:16.221Z,23.20
2018-11-28T21:00:44.341Z,23.30
2018-11-28T21:03:12.442Z,23.20
2018-11-28T21:05:40.549Z,23.20
2018-11-28T21:08:09.494Z,23.20
2018-11-28T21:10:39.288Z,23.20
2018-11-28T21:13:08.516Z,23.20
2018-11-28T21:15:36.621Z,23.20
2018-11-28T21:18:04.974Z,23.30
2018-11-28T21:20:33.079Z,23.20
2018-11-28T21:23:04.809Z,23.30
2018-11-28T21:25:33.255Z,23.30
2018-11-28T21:28:01.986Z,23.30
2018-11-28T21:30:30.433Z,23.30
2018-11-28T21:32:58.541Z,23.30
2018-11-28T21:35:28.310Z,23.30
2018-11-28T21:37:56.492Z,23.30
2018-11-28T21:40:26.348Z,23.30
2018-11-28T21:42:57.548Z,23.30
2018-11-28T21:45:26.239Z,23.30
2018-11-28T21:47:55.737Z,23.30
2018-11-28T21:50:24.573Z,23.30
2018-11-28T21:52:55.622Z,23.30
2018-11-28T21:55:25.866Z,23.30
2018-11-28T21:57:54.062Z,23.30
2018-11-28T22:00:27.726Z,23.20
2018-11-28T22:02:56.924Z,23.30
2018-11-28T22:05:28.758Z,23.20
2018-11-28T22:07:56.897Z,23.20
2018-11-28T22:10:26.719Z,23.20
2018-11-28T22:12:57.260Z,23.20
2018-11-28T22:15:33.048Z,23.20
2018-11-28T22:18:02.109Z,23.20
2018-11-28T22:20:30.533Z,23.20
2018-11-28T22:22:59.914Z,23.10
2018-11-28T22:25:28.349Z,23.10
2018-11-28T22:27:56.512Z,23.10
2018-11-28T22:30:27.887Z,23.10
2018-11-28T22:32:56.148Z,23.10
2018-11-28T22:35:24.245Z,23.10
2018-11-28T22:37:52.380Z,23.10
2018-11-28T22:40:22.716Z,23.10
2018-11-28T22:42:50.833Z,23.10
2018-11-28T22:45:27.017Z,23.10
2018-11-28T22:47:55.097Z,23.00
2018-11-28T22:50:23.224Z,23.00
2018-11-28T22:52:51.353Z,23.00
2018-11-28T22:55:19.469Z,23.00
2018-11-28T22:57:47.611Z,23.00
2018-11-28T23:00:22.898Z,23.00
2018-11-28T23:03:05.324Z,23.00
2018-11-28T23:05:35.298Z,23.00
2018-11-28T23:08:04.468Z,23.00
2018-11-28T23:10:32.569Z,23.00
2018-11-28T23:13:00.680Z,22.90
2018-11-28T23:15:29.446Z,23.00
2018-11-28T23:17:57.666Z,22.90
2018-11-28T23:20:25.894Z,22.90
2018-11-28T23:22:54.133Z,22.90
2018-11-28T23:25:22.102Z,22.90
2018-11-28T23:27:51.139Z,22.90
2018-11-28T23:30:20.293Z,23.00
2018-11-28T23:32:49.174Z,23.00
2018-11-28T23:35:17.769Z,23.00
2018-11-28T23:37:47.096Z,23.00
2018-11-28T23:40:18.821Z,22.90
2018-11-28T23:42:46.919Z,22.90
2018-11-28T23:45:15.407Z,22.90
2018-11-28T23:47:43.493Z,23.00
2018-11-28T23:50:18.402Z,23.00
2018-11-28T23:52:47.064Z,23.00
2018-11-28T23:55:15.977Z,22.90
2018-11-28T23:57:44.250Z,22.90
